Time;durP1;ratioP1;P1;durP2;ratioP2;P2;SDS_P1;SDS_P2;PMS_P1;PMS_P2;Temp;Humidity;BMP_temperature;BMP_pressure;BME280_temperature;BME280_humidity;BME280_pressure;Samples;Min_cycle;Max_cycle;Signal;HPM_P1;HPM_P2
2021/07/06 00:01:39;;;;;;;1.95;1.15;;;;;;;;;;4992351;28;20081;-67
2021/07/06 00:04:05;;;;;;;1.75;1.55;;;;;;;;;;5011040;28;20033;-67
2021/07/06 00:06:31;;;;;;;4.68;1.65;;;;;;;;;;5014929;28;20052;-68
2021/07/06 00:08:57;;;;;;;4.30;1.27;;;;;;;;;;4998259;28;20549;-67
2021/07/06 00:11:23;;;;;;;1.25;1.00;;;;;;;;;;5015776;28;20026;-68
2021/07/06 00:13:49;;;;;;;2.40;1.25;;;;;;;;;;5015662;28;20033;-67
2021/07/06 00:16:15;;;;;;;3.20;1.30;;;;;;;;;;5015442;28;20034;-67
2021/07/06 00:18:41;;;;;;;5.03;1.73;;;;;;;;;;5015634;28;20034;-67
2021/07/06 00:21:07;;;;;;;2.22;1.67;;;;;;;;;;5015419;28;20026;-67
2021/07/06 00:26:01;;;;;;;2.30;1.63;;;;;;;;;;5027306;23;20047;-68
2021/07/06 00:28:27;;;;;;;3.30;1.42;;;;;;;;;;5014164;28;20399;-68
2021/07/06 00:30:53;;;;;;;3.17;1.63;;;;;;;;;;5015398;28;20476;-69
2021/07/06 00:33:19;;;;;;;1.48;1.20;;;;;;;;;;5014064;28;20038;-68
2021/07/06 00:35:46;;;;;;;3.30;1.48;;;;;;;;;;5014970;28;20476;-68
2021/07/06 00:38:12;;;;;;;1.33;1.10;;;;;;;;;;5013411;28;20037;-71
2021/07/06 00:40:38;;;;;;;2.63;1.70;;;;;;;;;;5015446;28;20029;-71
2021/07/06 00:43:04;;;;;;;2.67;1.65;;;;;;;;;;5015104;28;20029;-71
2021/07/06 00:45:30;;;;;;;2.88;1.80;;;;;;;;;;5014979;28;20042;-69
2021/07/06 00:47:59;;;;;;;2.97;1.42;;;;;;;;;;4997508;28;20032;-69
2021/07/06 00:50:25;;;;;;;3.75;1.73;;;;;;;;;;5014920;28;20029;-69
2021/07/06 00:52:52;;;;;;;2.85;1.55;;;;;;;;;;4997282;28;20096;-68
2021/07/06 00:55:18;;;;;;;5.25;1.83;;;;;;;;;;5014690;28;20022;-69
2021/07/06 00:57:44;;;;;;;1.92;1.70;;;;;;;;;;5015031;28;20065;-68
2021/07/06 01:00:12;;;;;;;1.45;1.23;;;;;;;;;;5014870;28;20084;-69
2021/07/06 01:02:38;;;;;;;6.57;1.42;;;;;;;;;;4997291;28;20014;-69
2021/07/06 01:05:05;;;;;;;2.20;1.30;;;;;;;;;;5014446;28;20499;-69
2021/07/06 01:07:31;;;;;;;1.90;1.48;;;;;;;;;;5014619;28;20030;-69
2021/07/06 01:09:57;;;;;;;1.75;1.52;;;;;;;;;;4997136;28;20029;-69
2021/07/06 01:12:23;;;;;;;2.60;1.60;;;;;;;;;;4997344;28;20124;-70
2021/07/06 01:14:49;;;;;;;14.73;1.95;;;;;;;;;;5014404;28;20034;-69
2021/07/06 01:17:15;;;;;;;3.78;1.75;;;;;;;;;;4997613;28;20028;-70
2021/07/06 01:19:43;;;;;;;3.75;1.45;;;;;;;;;;5014644;28;20022;-70
2021/07/06 01:22:09;;;;;;;5.13;1.95;;;;;;;;;;5014428;28;20388;-69
2021/07/06 01:24:38;;;;;;;2.33;2.13;;;;;;;;;;5014102;28;20041;-69
2021/07/06 01:27:04;;;;;;;2.38;1.65;;;;;;;;;;5014713;28;20026;-71
2021/07/06 01:29:31;;;;;;;1.67;1.58;;;;;;;;;;5014549;28;20026;-70
2021/07/06 01:31:57;;;;;;;2.83;1.95;;;;;;;;;;5014335;28;20377;-69
2021/07/06 01:34:22;;;;;;;4.25;2.00;;;;;;;;;;5013685;28;20033;-71
2021/07/06 01:36:48;;;;;;;2.13;1.98;;;;;;;;;;5014258;28;20030;-69
2021/07/06 01:39:15;;;;;;;4.00;1.92;;;;;;;;;;4993637;28;20104;-69
2021/07/06 01:41:44;;;;;;;2.17;1.58;;;;;;;;;;4994513;28;20025;-70
2021/07/06 01:44:24;;;;;;;4.95;1.77;;;;;;;;;;4994297;28;20490;-69
2021/07/06 01:46:50;;;;;;;6.28;2.65;;;;;;;;;;4994314;28;20034;-69
2021/07/06 01:49:16;;;;;;;2.58;2.20;;;;;;;;;;4994101;28;20030;-68
2021/07/06 01:51:42;;;;;;;3.17;1.77;;;;;;;;;;4976755;28;20141;-70
2021/07/06 01:54:08;;;;;;;4.53;1.98;;;;;;;;;;4976660;28;20022;-70
2021/07/06 01:56:38;;;;;;;5.55;2.00;;;;;;;;;;4994154;28;20101;-70
2021/07/06 01:59:04;;;;;;;3.42;1.90;;;;;;;;;;4994227;28;20023;-70
2021/07/06 02:01:30;;;;;;;2.30;2.10;;;;;;;;;;4994026;28;20373;-70
2021/07/06 02:03:56;;;;;;;5.47;1.75;;;;;;;;;;4993917;28;20033;-70
2021/07/06 02:06:22;;;;;;;3.75;1.85;;;;;;;;;;4999712;28;20495;-70
2021/07/06 02:08:48;;;;;;;2.85;2.15;;;;;;;;;;4992778;28;20027;-68
2021/07/06 02:11:14;;;;;;;2.78;2.03;;;;;;;;;;4993968;28;20077;-72
2021/07/06 02:13:40;;;;;;;3.50;2.03;;;;;;;;;;4993889;28;20053;-70
2021/07/06 02:16:06;;;;;;;3.05;1.80;;;;;;;;;;4993371;28;20527;-68
2021/07/06 02:18:32;;;;;;;3.08;1.85;;;;;;;;;;4993818;28;20411;-68
2021/07/06 02:20:59;;;;;;;3.55;1.85;;;;;;;;;;4992608;28;20090;-68
2021/07/06 02:23:26;;;;;;;2.38;1.60;;;;;;;;;;4993846;28;20022;-68
2021/07/06 02:25:53;;;;;;;2.60;1.75;;;;;;;;;;5011375;28;20040;-68
2021/07/06 02:28:19;;;;;;;2.63;2.05;;;;;;;;;;5012681;28;20534;-71
2021/07/06 02:30:46;;;;;;;7.90;2.53;;;;;;;;;;4995704;28;20026;-70
2021/07/06 02:33:12;;;;;;;9.50;2.95;;;;;;;;;;5013529;28;20364;-70
2021/07/06 02:35:38;;;;;;;3.58;2.20;;;;;;;;;;5012884;28;20026;-70
2021/07/06 02:38:04;;;;;;;2.45;1.92;;;;;;;;;;5013784;28;20022;-67
2021/07/06 02:40:30;;;;;;;4.40;1.90;;;;;;;;;;4995570;28;20538;-70
2021/07/06 02:42:57;;;;;;;3.92;2.15;;;;;;;;;;4999453;28;20026;-68
2021/07/06 02:45:23;;;;;;;3.90;2.03;;;;;;;;;;4992942;28;20050;-68
2021/07/06 02:47:49;;;;;;;5.00;2.03;;;;;;;;;;4993464;28;20101;-67
2021/07/06 02:50:16;;;;;;;2.92;1.70;;;;;;;;;;4993371;28;20027;-68
2021/07/06 02:52:43;;;;;;;4.45;2.10;;;;;;;;;;4975944;28;20073;-68
2021/07/06 02:55:09;;;;;;;8.80;2.42;;;;;;;;;;4975370;28;20455;-69
2021/07/06 02:57:41;;;;;;;6.63;2.58;;;;;;;;;;4993092;28;20057;-68
2021/07/06 03:00:08;;;;;;;4.97;2.38;;;;;;;;;;4992950;28;20097;-68
2021/07/06 03:02:34;;;;;;;5.28;2.22;;;;;;;;;;4992965;28;20034;-68
2021/07/06 03:05:00;;;;;;;3.00;2.30;;;;;;;;;;4996590;28;20076;-69
2021/07/06 03:07:26;;;;;;;4.65;2.13;;;;;;;;;;5012493;28;20026;-68
2021/07/06 03:09:52;;;;;;;3.63;2.05;;;;;;;;;;5012490;28;20045;-68
2021/07/06 03:12:17;;;;;;;3.92;2.00;;;;;;;;;;5012262;28;20034;-69
2021/07/06 03:14:43;;;;;;;157.23;108.82;;;;;;;;;;5011773;28;20088;-69
2021/07/06 03:17:09;;;;;;;11.63;6.05;;;;;;;;;;5012194;28;20108;-68
2021/07/06 03:19:35;;;;;;;115.10;75.53;;;;;;;;;;5012246;28;20029;-69
2021/07/06 03:22:01;;;;;;;57.42;26.92;;;;;;;;;;5012131;28;20473;-70
2021/07/06 03:24:27;;;;;;;22.98;15.05;;;;;;;;;;5011792;28;20412;-67
2021/07/06 03:26:53;;;;;;;12.57;4.50;;;;;;;;;;5011932;28;20033;-72
2021/07/06 03:29:19;;;;;;;16.30;8.27;;;;;;;;;;5012177;28;20030;-69
2021/07/06 03:31:45;;;;;;;24.35;13.77;;;;;;;;;;5012095;28;20032;-68
2021/07/06 03:34:11;;;;;;;6.72;2.60;;;;;;;;;;4994224;28;20069;-68
2021/07/06 03:36:37;;;;;;;5.25;2.33;;;;;;;;;;5011726;28;20084;-68
2021/07/06 03:39:03;;;;;;;4.30;2.15;;;;;;;;;;5012274;28;20022;-69
2021/07/06 03:41:29;;;;;;;4.28;2.38;;;;;;;;;;5011722;28;20028;-69
2021/07/06 03:43:55;;;;;;;7.57;2.10;;;;;;;;;;4998766;28;20477;-68
2021/07/06 03:46:22;;;;;;;2.72;1.92;;;;;;;;;;4992178;28;20081;-68
2021/07/06 03:48:48;;;;;;;6.82;2.08;;;;;;;;;;4992377;28;20472;-68
2021/07/06 03:51:14;;;;;;;3.30;1.63;;;;;;;;;;4975031;28;20030;-69
2021/07/06 03:53:40;;;;;;;8.55;2.20;;;;;;;;;;4974920;28;20107;-69
2021/07/06 03:56:06;;;;;;;6.72;1.88;;;;;;;;;;4991828;28;20085;-70
2021/07/06 03:58:32;;;;;;;4.82;2.17;;;;;;;;;;4994417;28;20125;-69
2021/07/06 04:00:58;;;;;;;5.10;2.08;;;;;;;;;;4992493;28;20038;-69
2021/07/06 04:03:25;;;;;;;9.00;3.10;;;;;;;;;;4992372;28;20031;-69
2021/07/06 04:05:52;;;;;;;7.72;2.50;;;;;;;;;;5002454;28;20407;-69
2021/07/06 04:08:18;;;;;;;6.38;2.33;;;;;;;;;;5011661;28;20033;-70
2021/07/06 04:10:43;;;;;;;8.23;2.33;;;;;;;;;;5011603;28;20037;-71
2021/07/06 04:13:10;;;;;;;5.43;2.45;;;;;;;;;;5011840;28;20022;-70
2021/07/06 04:15:38;;;;;;;9.75;2.63;;;;;;;;;;4993572;28;20076;-71
2021/07/06 04:18:04;;;;;;;6.55;2.40;;;;;;;;;;5011613;28;20029;-70
2021/07/06 04:20:30;;;;;;;5.78;2.30;;;;;;;;;;5011573;28;20495;-72
2021/07/06 04:22:56;;;;;;;8.57;2.30;;;;;;;;;;5011620;28;20516;-72
2021/07/06 04:25:22;;;;;;;17.45;2.40;;;;;;;;;;5011186;28;20069;-70
2021/07/06 04:27:48;;;;;;;12.80;2.55;;;;;;;;;;5011566;28;20113;-71
2021/07/06 04:30:14;;;;;;;7.40;2.40;;;;;;;;;;4993863;28;20503;-70
2021/07/06 04:32:40;;;;;;;8.55;2.90;;;;;;;;;;5011295;28;20091;-71
2021/07/06 04:35:07;;;;;;;8.15;2.20;;;;;;;;;;4993388;28;20512;-69
2021/07/06 04:37:33;;;;;;;8.43;2.05;;;;;;;;;;5011179;28;20028;-70
2021/07/06 04:40:00;;;;;;;7.78;2.28;;;;;;;;;;5011421;28;20056;-70
2021/07/06 04:42:26;;;;;;;5.60;1.90;;;;;;;;;;5011208;28;20054;-69
2021/07/06 04:44:52;;;;;;;7.03;1.75;;;;;;;;;;5010982;28;20022;-69
2021/07/06 04:47:18;;;;;;;4.32;1.63;;;;;;;;;;5011285;28;20033;-70
2021/07/06 04:49:44;;;;;;;9.70;1.80;;;;;;;;;;5011018;28;20112;-70
2021/07/06 04:52:10;;;;;;;8.02;2.30;;;;;;;;;;4996181;28;20038;-70
2021/07/06 04:54:36;;;;;;;6.40;1.63;;;;;;;;;;4996603;28;20447;-70
2021/07/06 04:57:02;;;;;;;7.70;1.80;;;;;;;;;;4996893;28;20026;-72
2021/07/06 04:59:28;;;;;;;9.10;2.15;;;;;;;;;;4996486;28;20117;-72
2021/07/06 05:01:54;;;;;;;7.00;2.08;;;;;;;;;;5014673;28;20496;-70
2021/07/06 05:04:20;;;;;;;8.32;2.03;;;;;;;;;;4996779;28;20030;-70
2021/07/06 05:06:46;;;;;;;6.25;2.15;;;;;;;;;;5014216;28;20101;-70
2021/07/06 05:09:12;;;;;;;6.07;2.78;;;;;;;;;;5005984;28;20496;-72
2021/07/06 05:11:38;;;;;;;10.80;2.25;;;;;;;;;;4994463;28;20061;-72
2021/07/06 05:14:04;;;;;;;8.18;2.47;;;;;;;;;;4999607;28;20447;-70
2021/07/06 05:16:31;;;;;;;10.55;2.58;;;;;;;;;;5006086;28;20041;-70
2021/07/06 05:18:57;;;;;;;10.40;2.63;;;;;;;;;;4993677;28;20022;-71
2021/07/06 05:21:23;;;;;;;7.72;2.60;;;28.20;45.80;;;;;;4993203;28;20435;-70
2021/07/06 05:23:48;;;;;;;9.60;2.47;;;27.70;47.40;;;;;;4995681;28;20030;-72
2021/07/06 05:26:14;;;;;;;10.85;2.83;;;28.30;46.40;;;;;;5013604;28;20407;-69
2021/07/06 05:28:40;;;;;;;9.10;2.33;;;28.90;45.00;;;;;;5012165;28;20440;-71
2021/07/06 05:31:07;;;;;;;5.82;2.67;;;29.60;43.90;;;;;;5010711;28;20136;-70
2021/07/06 05:33:32;;;;;;;6.13;2.10;;;30.50;41.70;;;;;;5013019;28;20022;-70
2021/07/06 05:35:58;;;;;;;4.95;1.90;;;31.50;40.10;;;;;;5013111;28;20041;-71
2021/07/06 05:38:24;;;;;;;3.72;1.98;;;32.30;38.60;;;;;;5012911;28;20048;-70
2021/07/06 05:40:56;;;;;;;8.32;2.05;;;32.40;37.20;;;;;;5012481;28;20040;-72
2021/07/06 05:43:23;;;;;;;4.10;2.28;;;;;;;;;;4995357;28;20018;-70
2021/07/06 05:45:55;;;;;;;9.48;2.33;;;31.30;39.90;;;;;;5013088;28;20034;-70
2021/07/06 05:48:21;;;;;;;6.32;2.20;;;31.70;39.40;;;;;;5012748;28;20101;-70
2021/07/06 05:50:47;;;;;;;4.00;1.58;;;31.60;39.40;;;;;;5012792;28;20041;-69
2021/07/06 05:53:13;;;;;;;9.20;2.08;;;32.10;38.40;;;;;;4994666;28;20590;-70
2021/07/06 05:55:45;;;;;;;8.88;2.08;;;32.20;38.70;;;;;;5012626;28;20038;-69
2021/07/06 05:58:11;;;;;;;14.18;2.75;;;32.50;37.90;;;;;;5013038;28;20088;-70
2021/07/06 06:00:38;;;;;;;7.47;2.33;;;32.00;38.50;;;;;;5013437;28;20045;-70
2021/07/06 06:03:08;;;;;;;7.40;1.85;;;32.10;38.20;;;;;;5011552;28;20018;-67
2021/07/06 06:05:35;;;;;;;5.28;2.35;;;31.00;40.00;;;;;;5012805;28;20029;-68
2021/07/06 06:08:00;;;;;;;5.30;1.92;;;31.10;40.70;;;;;;5013232;28;20122;-67
2021/07/06 06:10:26;;;;;;;3.90;1.88;;;30.40;42.20;;;;;;5013065;28;20108;-68
2021/07/06 06:12:51;;;;;;;4.40;2.17;;;31.60;40.30;;;;;;5011561;28;20026;-68
2021/07/06 06:15:17;;;;;;;10.35;1.92;;;31.60;39.60;;;;;;5012527;28;20509;-68
2021/07/06 06:17:43;;;;;;;5.95;1.67;;;32.20;38.90;;;;;;4995188;28;20447;-69
2021/07/06 06:20:09;;;;;;;5.95;2.20;;;32.40;39.00;;;;;;4991157;28;20669;-68
2021/07/06 06:22:34;;;;;;;4.95;2.17;;;33.90;35.70;;;;;;5011195;28;20069;-68
2021/07/06 06:25:01;;;;;;;3.33;1.88;;;34.60;35.20;;;;;;5016976;23;20042;-65
2021/07/06 06:27:26;;;;;;;4.78;1.40;;;33.70;36.00;;;;;;4991389;28;20042;-66
2021/07/06 06:29:52;;;;;;;7.05;1.73;;;34.80;34.90;;;;;;4972587;28;20053;-65
2021/07/06 06:32:17;;;;;;;7.30;2.05;;;33.80;35.90;;;;;;4992772;28;20081;-70
2021/07/06 06:34:44;;;;;;;5.18;1.65;;;33.70;36.20;;;;;;4988072;28;20485;-70
2021/07/06 06:37:10;;;;;;;38.10;27.17;;;33.50;36.40;;;;;;4992261;28;20038;-69
2021/07/06 06:39:36;;;;;;;36.15;25.55;;;32.90;38.00;;;;;;4986214;28;20022;-68
2021/07/06 06:42:01;;;;;;;7.75;4.03;;;32.30;38.90;;;;;;4991730;28;20026;-68
2021/07/06 06:44:27;;;;;;;4.57;2.08;;;31.50;40.70;;;;;;4991738;28;20034;-70
2021/07/06 06:46:52;;;;;;;5.22;2.53;;;31.70;40.70;;;;;;4978526;28;20094;-69
2021/07/06 06:49:18;;;;;;;6.72;2.90;;;31.90;40.20;;;;;;4968189;28;20080;-69
2021/07/06 06:51:43;;;;;;;7.72;2.17;;;32.30;40.00;;;;;;4962375;28;20039;-68
2021/07/06 06:54:09;;;;;;;3.88;2.83;;;32.20;39.60;;;;;;4992497;28;20027;-68
2021/07/06 06:56:39;;;;;;;7.93;3.60;;;32.80;39.10;;;;;;4972116;28;20129;-68
2021/07/06 06:59:06;;;;;;;4.43;2.13;;;33.50;38.30;;;;;;4975558;28;20080;-69
2021/07/06 07:01:32;;;;;;;5.03;2.33;;;33.00;38.30;;;;;;4962095;28;20294;-69
2021/07/06 07:03:57;;;;;;;6.13;3.10;;;32.80;38.30;;;;;;4974894;28;20121;-69
2021/07/06 07:06:23;;;;;;;11.30;6.72;;;32.70;38.40;;;;;;4974419;28;20106;-67
2021/07/06 07:08:49;;;;;;;7.72;2.90;;;32.40;39.10;;;;;;4987026;28;20042;-67
2021/07/06 07:11:14;;;;;;;3.30;2.63;;;31.90;40.00;;;;;;4991432;28;20460;-68
2021/07/06 07:13:40;;;;;;;13.68;7.93;;;32.10;40.90;;;;;;4960770;28;20041;-68
2021/07/06 07:16:05;;;;;;;11.85;5.32;;;32.40;40.10;;;;;;4984238;28;20031;-68
2021/07/06 07:18:31;;;;;;;4.53;3.00;;;32.30;39.70;;;;;;4987283;28;20347;-68
2021/07/06 07:20:56;;;;;;;5.82;2.40;;;32.40;39.40;;;;;;4981631;28;20476;-68
2021/07/06 07:23:22;;;;;;;3.17;2.13;;;32.70;39.10;;;;;;4980627;28;20035;-68
2021/07/06 07:25:47;;;;;;;4.30;3.60;;;33.70;37.50;;;;;;4987966;28;20041;-68
2021/07/06 07:28:13;;;;;;;6.78;2.92;;;34.90;35.30;;;;;;4976380;28;20057;-68
2021/07/06 07:30:39;;;;;;;20.00;14.23;;;34.40;35.50;;;;;;4986276;28;20023;-68
2021/07/06 07:33:04;;;;;;;3.70;2.08;;;34.40;34.90;;;;;;4982276;28;20066;-68
2021/07/06 07:35:30;;;;;;;3.50;1.85;;;33.90;35.80;;;;;;4979017;28;20035;-69
2021/07/06 07:37:55;;;;;;;2.60;1.40;;;34.50;35.30;;;;;;4971409;28;20069;-69
2021/07/06 07:40:21;;;;;;;2.17;1.05;;;34.10;35.10;;;;;;4976220;28;20445;-68
2021/07/06 07:42:48;;;;;;;4.00;1.77;;;34.30;34.30;;;;;;4985085;28;20033;-69
2021/07/06 07:45:14;;;;;;;1.30;0.93;;;34.50;34.10;;;;;;4991715;28;20022;-71
2021/07/06 07:47:40;;;;;;;0.98;0.88;;;35.00;33.00;;;;;;4981659;28;20041;-66
2021/07/06 07:50:06;;;;;;;10.82;9.63;;;35.30;31.80;;;;;;4974549;28;20493;-65
2021/07/06 07:52:34;;;;;;;2.72;1.27;;;34.70;32.60;;;;;;4973593;28;20030;-65
2021/07/06 07:55:01;;;;;;;1.60;1.05;;;35.30;31.60;;;;;;4990529;28;20019;-64
2021/07/06 07:57:26;;;;;;;1.90;0.88;;;34.00;33.80;;;;;;4992135;28;20022;-65
2021/07/06 07:59:53;;;;;;;6.72;5.93;;;33.60;34.20;;;;;;4991927;28;20027;-66
2021/07/06 08:02:20;;;;;;;12.07;10.85;;;34.30;34.50;;;;;;4991113;28;20468;-65
2021/07/06 08:04:45;;;;;;;1.27;1.17;;;35.00;33.40;;;;;;4973304;28;20041;-65
2021/07/06 08:07:11;;;;;;;9.10;7.63;;;35.60;31.90;;;;;;4990958;28;20030;-65
2021/07/06 08:09:37;;;;;;;3.00;1.67;;;36.70;31.00;;;;;;4991225;28;20165;-64
2021/07/06 08:12:04;;;;;;;5.13;4.57;;;37.20;29.10;;;;;;4992150;28;20109;-64
2021/07/06 08:14:29;;;;;;;2.63;1.80;;;37.80;28.90;;;;;;4974167;28;20409;-64
2021/07/06 08:16:57;;;;;;;8.57;7.78;;;38.00;28.10;;;;;;4991803;28;20018;-65
2021/07/06 08:19:23;;;;;;;11.75;10.52;;;39.00;27.50;;;;;;4992030;28;20473;-65
2021/07/06 08:21:49;;;;;;;1.15;0.70;;;39.30;27.20;;;;;;4992139;28;20102;-65
2021/07/06 08:24:15;;;;;;;2.38;0.98;;;38.90;25.40;;;;;;4991857;28;20539;-65
2021/07/06 08:26:40;;;;;;;2.70;2.38;;;37.40;26.80;;;;;;4993720;28;20077;-64
2021/07/06 08:29:06;;;;;;;1.27;0.68;;;37.40;29.00;;;;;;4995610;28;20023;-64
2021/07/06 08:31:33;;;;;;;2.85;0.90;;;38.00;27.00;;;;;;4995861;28;20041;-65
2021/07/06 08:33:59;;;;;;;3.28;2.22;;;36.30;29.00;;;;;;4995714;28;20046;-65
2021/07/06 08:36:24;;;;;;;2.05;1.92;;;36.40;29.10;;;;;;4995231;28;20207;-65
2021/07/06 08:38:50;;;;;;;4.00;3.05;;;37.60;28.00;;;;;;4995758;28;20019;-65
2021/07/06 08:41:16;;;;;;;3.35;0.88;;;38.30;26.50;;;;;;4995443;28;20098;-65
2021/07/06 08:43:41;;;;;;;2.92;2.38;;;38.50;25.30;;;;;;4995484;28;20492;-65
2021/07/06 08:46:07;;;;;;;4.50;3.92;;;37.80;26.10;;;;;;4977743;28;20053;-65
2021/07/06 08:48:35;;;;;;;2.25;1.25;;;38.00;27.90;;;;;;4984328;28;20027;-65
2021/07/06 08:51:02;;;;;;;4.40;2.38;;;37.70;27.40;;;;;;4976010;28;20031;-65
2021/07/06 08:53:28;;;;;;;3.17;0.65;;;37.60;28.00;;;;;;4976059;28;20084;-65
2021/07/06 08:55:56;;;;;;;2.53;1.65;;;37.60;27.60;;;;;;4975098;28;20117;-65
2021/07/06 08:58:22;;;;;;;2.83;1.95;;;37.70;28.20;;;;;;4975917;28;20516;-65
2021/07/06 09:00:47;;;;;;;2.72;2.53;;;37.90;27.80;;;;;;4975670;28;20042;-65
2021/07/06 09:03:13;;;;;;;3.47;2.33;;;38.00;27.50;;;;;;4975672;28;20031;-65
2021/07/06 09:05:39;;;;;;;1.80;1.50;;;37.70;27.60;;;;;;4975512;28;20121;-65
2021/07/06 09:08:06;;;;;;;1.20;1.10;;;37.60;27.60;;;;;;4975592;28;20042;-65
2021/07/06 09:10:40;;;;;;;5.30;1.77;;;37.10;27.60;;;;;;4990967;28;20026;-65
2021/07/06 09:13:24;;;;;;;4.22;1.63;;;36.80;26.50;;;;;;4977339;28;20037;-65
2021/07/06 09:15:54;;;;;;;3.88;1.80;;;35.90;29.50;;;;;;4994495;28;20034;-65
2021/07/06 09:18:21;;;;;;;1.85;1.17;;;35.80;30.40;;;;;;4995036;28;20030;-65
2021/07/06 09:21:09;;;;;;;3.85;0.93;;;35.90;29.90;;;;;;4994881;28;20050;-65
2021/07/06 09:23:37;;;;;;;6.55;0.85;;;35.90;29.80;;;;;;4977337;28;20045;-65
2021/07/06 09:26:07;;;;;;;1.77;1.25;;;36.30;28.60;;;;;;4993059;28;20404;-64
2021/07/06 09:28:34;;;;;;;0.67;0.60;;;36.50;29.20;;;;;;4994815;28;20062;-65
2021/07/06 09:31:18;;;;;;;2.58;1.02;;;36.60;29.00;;;;;;4995218;28;20476;-64
2021/07/06 09:34:00;;;;;;;2.78;1.05;;;35.90;29.20;;;;;;4994806;28;20030;-64
2021/07/06 09:36:26;;;;;;;0.60;0.60;;;35.60;30.10;;;;;;4993774;28;20088;-64
2021/07/06 09:39:24;;;;;;;1.20;0.75;;;35.50;29.10;;;;;;4994720;28;20022;-64
2021/07/06 09:42:11;;;;;;;1.05;0.52;;;34.90;30.00;;;;;;4993886;28;20049;-64
2021/07/06 09:44:40;;;;;;;5.55;0.70;;;34.60;30.30;;;;;;4993940;28;20061;-64
2021/07/06 09:47:15;;;;;;;3.22;0.70;;;34.30;31.10;;;;;;4993344;28;20046;-64
2021/07/06 09:50:02;;;;;;;2.47;0.60;;;34.20;30.90;;;;;;4993501;28;20601;-64
2021/07/06 09:52:33;;;;;;;4.32;0.90;;;34.40;31.50;;;;;;4992178;28;20038;-64
2021/07/06 09:55:07;;;;;;;1.50;0.85;;;34.40;31.90;;;;;;4993195;28;20027;-64
2021/07/06 09:57:37;;;;;;;2.45;0.82;;;34.70;30.80;;;;;;4992702;28;20637;-64
2021/07/06 10:00:07;;;;;;;1.48;1.13;;;34.70;31.70;;;;;;4993492;28;20058;-65
2021/07/06 10:02:36;;;;;;;0.73;0.73;;;34.60;31.40;;;;;;4994065;28;20518;-64
2021/07/06 10:05:05;;;;;;;1.25;0.90;;;34.00;32.00;;;;;;4975977;28;20034;-65
2021/07/06 10:07:32;;;;;;;1.67;1.17;;;34.20;31.70;;;;;;4994128;28;20132;-65
2021/07/06 10:09:58;;;;;;;1.48;1.00;;;34.10;31.90;;;;;;4993840;28;20030;-65
2021/07/06 10:12:24;;;;;;;1.60;1.23;;;33.70;32.20;;;;;;4994379;28;20049;-65
2021/07/06 10:14:51;;;;;;;2.50;0.88;;;33.70;32.80;;;;;;4993579;28;20459;-65
2021/07/06 10:17:17;;;;;;;2.90;0.90;;;33.40;33.10;;;;;;4993047;28;20041;-65
2021/07/06 10:19:44;;;;;;;1.95;1.00;;;33.40;31.70;;;;;;4975659;28;20109;-65
2021/07/06 10:22:12;;;;;;;1.27;0.93;;;33.20;32.10;;;;;;4993760;28;20030;-65
2021/07/06 10:24:39;;;;;;;1.33;0.95;;;32.90;33.70;;;;;;4993738;28;20377;-64
2021/07/06 10:27:07;;;;;;;3.53;1.08;;;32.90;33.40;;;;;;4972849;28;20382;-65
2021/07/06 10:29:35;;;;;;;1.95;0.60;;;32.40;34.50;;;;;;4962148;28;20047;-65
2021/07/06 10:32:02;;;;;;;1.50;0.90;;;32.00;32.80;;;;;;4991562;28;20522;-65
2021/07/06 10:34:29;;;;;;;1.50;0.95;;;31.70;34.80;;;;;;4990042;28;20053;-64
2021/07/06 10:36:59;;;;;;;2.92;0.85;;;31.60;36.10;;;;;;4993447;28;20207;-65
2021/07/06 10:39:47;;;;;;;1.13;0.95;;;31.40;36.10;;;;;;4993969;28;20026;-65
2021/07/06 10:42:14;;;;;;;1.35;0.80;;;31.20;36.50;;;;;;4975630;28;20496;-65
2021/07/06 10:44:42;;;;;;;3.42;1.00;;;31.10;36.80;;;;;;4975499;28;20034;-65
2021/07/06 10:47:39;;;;;;;0.57;0.57;;;31.10;36.70;;;;;;4993545;28;20436;-65
2021/07/06 10:50:30;;;;;;;3.60;0.70;;;30.90;36.60;;;;;;4984912;28;20054;-65
2021/07/06 10:53:14;;;;;;;1.83;0.82;;;30.40;37.20;;;;;;4992738;28;20414;-64
2021/07/06 10:55:41;;;;;;;2.13;1.13;;;29.90;38.10;;;;;;4992967;28;20117;-65
2021/07/06 10:58:07;;;;;;;2.33;0.88;;;29.60;39.70;;;;;;4992857;28;20506;-65
2021/07/06 11:00:43;;;;;;;0.93;0.75;;;29.70;39.20;;;;;;4993003;28;20038;-62
2021/07/06 11:03:19;;;;;;;1.83;0.90;;;29.60;39.70;;;;;;4993056;28;20485;-64
2021/07/06 11:05:45;;;;;;;2.72;1.02;;;29.50;40.50;;;;;;4991621;28;20510;-65
2021/07/06 11:08:39;;;;;;;6.80;0.93;;;29.60;40.30;;;;;;4992792;28;20073;-64
2021/07/06 11:11:05;;;;;;;1.83;1.15;;;29.50;40.30;;;;;;4973324;28;20038;-65
2021/07/06 11:13:31;;;;;;;2.00;0.80;;;29.20;41.50;;;;;;4981338;28;20037;-65
2021/07/06 11:15:58;;;;;;;3.45;0.80;;;29.40;41.90;;;;;;4992242;28;20030;-65
2021/07/06 11:18:41;;;;;;;2.80;1.10;;;29.40;40.30;;;;;;4993032;28;20101;-65
2021/07/06 11:21:30;;;;;;;4.68;1.10;;;29.50;41.30;;;;;;4993286;28;20030;-65
2021/07/06 11:24:16;;;;;;;3.05;1.40;;;29.60;41.60;;;;;;4973312;28;20019;-65
2021/07/06 11:26:44;;;;;;;4.03;0.82;;;29.70;41.30;;;;;;4955318;28;20113;-65
2021/07/06 11:29:10;;;;;;;5.07;1.05;;;29.50;41.20;;;;;;4973026;28;20022;-65
2021/07/06 11:31:36;;;;;;;1.67;0.80;;;29.50;42.50;;;;;;4972998;28;20026;-65
2021/07/06 11:34:04;;;;;;;1.65;0.80;;;29.60;42.20;;;;;;4973237;28;20371;-65
2021/07/06 11:36:30;;;;;;;1.83;0.60;;;29.70;41.60;;;;;;4955404;28;20046;-65
2021/07/06 11:38:57;;;;;;;2.47;1.00;;;29.70;41.10;;;;;;4976603;28;20101;-65
2021/07/06 11:41:26;;;;;;;6.75;0.90;;;29.80;41.30;;;;;;4992296;28;20019;-65
2021/07/06 11:43:51;;;;;;;2.55;1.10;;;29.40;41.90;;;;;;4992380;28;20026;-65
2021/07/06 11:46:19;;;;;;;2.15;0.93;;;29.20;42.90;;;;;;4992075;28;20128;-65
2021/07/06 11:48:48;;;;;;;1.25;0.85;;;29.20;42.10;;;;;;4992294;28;20038;-65
2021/07/06 11:51:15;;;;;;;5.30;1.10;;;29.50;43.00;;;;;;4992437;28;20026;-65
2021/07/06 11:53:46;;;;;;;6.82;1.13;;;29.50;42.60;;;;;;4992191;28;20038;-65
2021/07/06 11:56:13;;;;;;;3.87;1.07;;;29.80;42.80;;;;;;4991765;28;20508;-65
2021/07/06 11:58:39;;;;;;;1.00;0.70;;;29.90;42.00;;;;;;4974680;28;20384;-65
2021/07/06 12:01:10;;;;;;;1.30;0.70;;;29.90;42.10;;;;;;4995160;28;20125;-65
2021/07/06 12:03:37;;;;;;;3.60;1.33;;;29.90;41.70;;;;;;4978586;28;20081;-65
2021/07/06 12:06:06;;;;;;;4.28;0.90;;;29.80;41.20;;;;;;4995876;28;20023;-65
2021/07/06 12:08:33;;;;;;;0.70;0.70;;;29.60;42.10;;;;;;4978319;28;20057;-65
2021/07/06 12:11:04;;;;;;;3.60;0.75;;;29.40;40.70;;;;;;4993635;28;20424;-65
2021/07/06 12:13:42;;;;;;;2.88;1.23;;;29.40;41.80;;;;;;4983489;28;20097;-65
2021/07/06 12:16:14;;;;;;;2.70;0.90;;;29.30;42.40;;;;;;4982393;28;20035;-65
2021/07/06 12:18:58;;;;;;;3.97;1.08;;;29.50;42.40;;;;;;4978222;28;20464;-65
2021/07/06 12:21:32;;;;;;;2.42;1.15;;;29.70;42.00;;;;;;4995841;28;20480;-65
2021/07/06 12:24:15;;;;;;;3.08;0.93;;;29.60;40.50;;;;;;4995713;28;20027;-65
2021/07/06 12:26:48;;;;;;;2.00;0.90;;;29.40;42.20;;;;;;5028638;23;20049;-67
2021/07/06 12:29:28;;;;;;;2.67;0.50;;;29.50;42.60;;;;;;5023948;28;20030;-67
2021/07/06 12:31:54;;;;;;;1.80;0.90;;;29.60;41.40;;;;;;4994389;28;20392;-67
2021/07/06 12:34:20;;;;;;;1.52;0.60;;;29.50;41.90;;;;;;4976472;28;20031;-67
2021/07/06 12:36:49;;;;;;;2.88;1.23;;;29.50;41.70;;;;;;4989770;28;20112;-67
2021/07/06 12:39:36;;;;;;;1.85;0.70;;;29.70;41.80;;;;;;5015060;28;20106;-67
2021/07/06 12:42:04;;;;;;;1.30;0.70;;;29.80;40.90;;;;;;5015139;28;20443;-67
2021/07/06 12:44:32;;;;;;;1.40;1.00;;;29.50;40.00;;;;;;5007750;28;20054;-67
2021/07/06 12:47:23;;;;;;;0.98;0.75;;;29.50;41.00;;;;;;4995195;28;20026;-67
2021/07/06 12:50:17;;;;;;;4.63;0.80;;;29.50;41.20;;;;;;4994983;28;20502;-67
2021/07/06 12:52:47;;;;;;;2.08;1.25;;;29.40;41.60;;;;;;4994862;28;20150;-67
2021/07/06 12:55:22;;;;;;;3.70;0.75;;;29.40;41.10;;;;;;4977076;28;20026;-67
2021/07/06 12:57:52;;;;;;;3.03;0.93;;;29.40;42.10;;;;;;4994551;28;20034;-67
2021/07/06 13:00:19;;;;;;;1.30;0.98;;;29.40;41.80;;;;;;4994401;28;20102;-67
2021/07/06 13:02:49;;;;;;;1.23;0.75;;;29.50;41.80;;;;;;4994908;28;20046;-67
2021/07/06 13:05:22;;;;;;;2.15;0.90;;;29.50;40.50;;;;;;4976722;28;20022;-67
2021/07/06 13:07:48;;;;;;;0.90;0.50;;;29.70;40.30;;;;;;4994753;28;20391;-67
2021/07/06 13:10:18;;;;;;;1.90;1.10;;;29.90;41.20;;;;;;5007674;28;20026;-67
2021/07/06 13:12:51;;;;;;;5.75;1.15;;;30.00;40.20;;;;;;5012473;28;20029;-67
2021/07/06 13:15:19;;;;;;;1.73;0.73;;;30.00;38.70;;;;;;4994216;28;20037;-67
2021/07/06 13:17:47;;;;;;;0.63;0.60;;;30.00;39.30;;;;;;5013844;28;20018;-67
2021/07/06 13:20:19;;;;;;;1.15;0.88;;;30.00;39.60;;;;;;5012776;28;20022;-67
2021/07/06 13:22:45;;;;;;;1.08;0.63;;;30.10;38.30;;;;;;5014357;28;20028;-67
2021/07/06 13:25:13;;;;;;;3.15;0.60;;;30.20;39.10;;;;;;5016508;28;20108;-67
2021/07/06 13:27:40;;;;;;;1.77;0.45;;;30.30;38.00;;;;;;5033500;28;20036;-67
2021/07/06 13:30:09;;;;;;;1.23;0.70;;;30.20;37.50;;;;;;5033346;28;20029;-67
2021/07/06 13:32:53;;;;;;;1.23;0.85;;;30.20;38.80;;;;;;4994111;28;20030;-67
2021/07/06 13:35:19;;;;;;;4.45;1.15;;;30.20;38.50;;;;;;4993791;28;20030;-67